Time;durP1;ratioP1;P1;durP2;ratioP2;P2;SDS_P1;SDS_P2;PMS_P1;PMS_P2;Temp;Humidity;BMP_temperature;BMP_pressure;BME280_temperature;BME280_humidity;BME280_pressure;Samples;Min_cycle;Max_cycle;Signal;HPM_P1;HPM_P2
2023/05/29 00:01:12;;;;;;;4.77;2.97;;;;;;;18.89;60.39;98140.00;4191687;28;20636;-86
2023/05/29 00:03:15;;;;;;;5.13;2.90;;;;;;;18.87;60.54;98138.50;4191798;28;20693;-86
2023/05/29 00:05:18;;;;;;;5.30;3.43;;;;;;;18.85;60.18;98145.75;4192108;28;21086;-87
2023/05/29 00:07:22;;;;;;;5.07;3.13;;;;;;;18.84;60.48;98145.91;4198712;28;20728;-87
2023/05/29 00:09:25;;;;;;;6.43;3.23;;;;;;;18.80;60.72;98140.09;4174973;28;20668;-86
2023/05/29 00:11:29;;;;;;;6.17;3.23;;;;;;;18.78;60.96;98146.50;4197156;28;20637;-87
2023/05/29 00:13:32;;;;;;;5.47;3.23;;;;;;;18.75;60.80;98136.25;4193220;28;20632;-87
2023/05/29 00:15:36;;;;;;;5.30;3.00;;;;;;;18.71;61.31;98138.38;4200592;28;20670;-86
2023/05/29 00:17:42;;;;;;;4.80;3.10;;;;;;;18.65;60.77;98131.06;4185059;28;22657;-87
2023/05/29 00:19:46;;;;;;;5.17;3.13;;;;;;;18.63;60.94;98130.38;4208060;28;20631;-86
2023/05/29 00:21:49;;;;;;;4.67;2.87;;;;;;;18.65;60.75;98125.78;4200076;28;20739;-87
2023/05/29 00:23:52;;;;;;;6.53;2.50;;;;;;;18.61;61.16;98127.09;4201554;28;20632;-87
2023/05/29 00:25:55;;;;;;;6.40;3.57;;;;;;;18.60;61.14;98117.47;4182765;28;21268;-87
2023/05/29 00:27:59;;;;;;;5.73;3.70;;;;;;;18.60;61.10;98120.13;4200331;28;20632;-87
2023/05/29 00:30:03;;;;;;;4.90;3.07;;;;;;;18.52;61.55;98120.06;4205803;28;21224;-87
2023/05/29 00:32:06;;;;;;;3.77;3.00;;;;;;;18.53;61.47;98116.41;4183839;28;20633;-87
2023/05/29 00:34:11;;;;;;;7.13;3.00;;;;;;;18.51;61.33;98118.41;4184515;28;20694;-87
2023/05/29 00:36:14;;;;;;;4.67;2.83;;;;;;;18.48;61.50;98126.63;4187110;28;20699;-86
2023/05/29 00:38:17;;;;;;;3.70;2.60;;;;;;;18.48;61.53;98120.53;4193238;28;20628;-86
2023/05/29 00:40:21;;;;;;;4.10;2.90;;;;;;;18.53;61.41;98127.00;4186374;28;20632;-86
2023/05/29 00:42:24;;;;;;;4.87;3.00;;;;;;;18.52;60.94;98124.50;4205265;28;20685;-86
2023/05/29 00:44:27;;;;;;;4.03;2.83;;;;;;;18.52;61.59;98122.72;4200184;28;21066;-86
2023/05/29 00:46:31;;;;;;;7.50;2.90;;;;;;;18.50;61.50;98126.47;4200131;28;20627;-86
2023/05/29 00:48:34;;;;;;;6.53;3.50;;;;;;;18.50;61.61;98127.28;4190576;28;20638;-86
2023/05/29 00:50:40;;;;;;;4.57;3.00;;;;;;;18.50;62.06;98127.28;4193675;28;20635;-86
2023/05/29 00:52:44;;;;;;;4.70;3.23;;;;;;;18.43;63.17;98126.25;4187707;28;20633;-86
2023/05/29 00:54:48;;;;;;;4.67;3.37;;;;;;;18.38;63.54;98126.88;4189155;28;20651;-86
2023/05/29 00:56:51;;;;;;;5.17;3.30;;;;;;;18.30;64.57;98117.06;4189358;28;21487;-86
2023/05/29 00:58:54;;;;;;;8.13;3.80;;;;;;;18.22;64.90;98117.00;4191293;28;21563;-86
2023/05/29 01:00:58;;;;;;;5.90;3.50;;;;;;;18.15;65.30;98117.75;4189412;28;21215;-86
2023/05/29 01:03:02;;;;;;;5.20;3.40;;;;;;;18.05;65.78;98112.47;4178929;28;20987;-86
2023/05/29 01:05:06;;;;;;;6.10;3.97;;;;;;;17.94;66.71;98112.72;4173160;28;20641;-86
2023/05/29 01:07:10;;;;;;;4.90;3.33;;;;;;;17.87;66.47;98113.44;4199890;28;20663;-86
2023/05/29 01:09:14;;;;;;;4.53;3.30;;;;;;;17.80;67.20;98109.75;4193111;28;20703;-86
2023/05/29 01:11:32;;;;;;;7.63;3.40;;;;;;;17.73;66.86;98107.88;4193586;28;20631;-86
2023/05/29 01:13:36;;;;;;;6.33;3.47;;;;;;;17.69;66.95;98109.13;4179510;28;22592;-86
2023/05/29 01:15:45;;;;;;;5.27;3.47;;;;;;;17.62;67.26;98111.53;4186918;28;20653;-86
2023/05/29 01:18:01;;;;;;;6.17;3.60;;;;;;;17.57;68.16;98107.66;4172403;28;20663;-86
2023/05/29 01:20:21;;;;;;;6.57;4.00;;;;;;;17.50;68.26;98111.88;4195059;28;20626;-86
2023/05/29 01:22:36;;;;;;;7.77;3.60;;;;;;;17.46;68.54;98105.22;4181792;28;20671;-86
2023/05/29 01:24:45;;;;;;;5.43;2.93;;;;;;;17.38;67.41;98102.50;4191604;28;20634;-86
2023/05/29 01:26:52;;;;;;;5.03;3.60;;;;;;;17.30;68.17;98099.75;4188222;28;21362;-86
2023/05/29 01:28:58;;;;;;;5.27;3.33;;;;;;;17.28;68.30;98103.53;4177616;28;20628;-85
2023/05/29 01:31:02;;;;;;;6.70;4.00;;;;;;;17.20;68.13;98106.88;4186878;28;20676;-86
2023/05/29 01:33:05;;;;;;;7.57;3.67;;;;;;;17.17;69.83;98107.13;4187727;28;20664;-86
2023/05/29 01:35:09;;;;;;;5.17;3.70;;;;;;;17.14;69.37;98109.25;4199692;28;21011;-85
2023/05/29 01:37:13;;;;;;;5.63;3.73;;;;;;;17.09;67.99;98114.94;4192206;28;21579;-86
2023/05/29 01:39:16;;;;;;;5.07;3.70;;;;;;;17.04;69.37;98111.88;4200378;28;20686;-86
2023/05/29 01:41:20;;;;;;;5.70;4.10;;;;;;;16.93;68.40;98113.88;4188949;28;21253;-86
2023/05/29 01:43:26;;;;;;;7.13;3.53;;;;;;;16.88;68.99;98107.38;4200634;28;20639;-86
2023/05/29 01:45:29;;;;;;;6.10;3.93;;;;;;;16.85;70.67;98113.75;4185116;28;20690;-86
2023/05/29 01:47:32;;;;;;;5.03;3.30;;;;;;;16.81;71.37;98111.53;4188466;28;20669;-86
2023/05/29 01:49:37;;;;;;;5.77;3.90;;;;;;;16.78;71.49;98117.94;4194081;28;20631;-86
2023/05/29 01:51:41;;;;;;;5.63;4.03;;;;;;;16.76;69.41;98113.78;4171917;28;20624;-86
2023/05/29 01:53:45;;;;;;;5.60;3.27;;;;;;;16.69;69.99;98118.78;4188382;28;21185;-86
2023/05/29 01:55:48;;;;;;;6.63;3.90;;;;;;;16.66;69.35;98120.88;4176614;28;20865;-86
2023/05/29 01:57:51;;;;;;;5.77;3.90;;;;;;;16.62;71.84;98114.22;4187722;28;20673;-86
2023/05/29 01:59:56;;;;;;;5.73;3.87;;;;;;;16.58;70.08;98116.31;4180930;28;20631;-86
2023/05/29 02:02:06;;;;;;;5.40;3.43;;;;;;;16.56;71.44;98115.59;4174944;28;21301;-86
2023/05/29 02:04:09;;;;;;;6.53;4.27;;;;;;;16.53;71.99;98115.88;4192358;28;20686;-85
2023/05/29 02:06:12;;;;;;;5.67;3.67;;;;;;;16.49;70.24;98111.03;4191779;28;20783;-86
2023/05/29 02:08:16;;;;;;;6.13;3.70;;;;;;;16.45;71.95;98111.47;4188444;28;20657;-86
2023/05/29 02:10:19;;;;;;;5.50;4.10;;;;;;;16.41;72.48;98107.47;4193223;28;21230;-86
2023/05/29 02:12:22;;;;;;;5.50;3.87;;;;;;;16.36;71.60;98107.06;4189057;28;20682;-86
2023/05/29 02:14:25;;;;;;;6.53;4.10;;;;;;;16.34;71.53;98111.63;4198138;28;20680;-86
2023/05/29 02:16:33;;;;;;;4.93;3.73;;;;;;;16.31;71.30;98107.47;4191601;28;21239;-86
2023/05/29 02:18:36;;;;;;;7.43;3.87;;;;;;;16.32;72.60;98110.94;4178710;28;20627;-86
2023/05/29 02:20:42;;;;;;;4.90;3.53;;;;;;;16.29;71.43;98108.59;4178462;28;20634;-86
2023/05/29 02:22:45;;;;;;;5.90;3.80;;;;;;;16.26;72.13;98103.59;4191261;28;20679;-86
2023/05/29 02:24:48;;;;;;;4.03;3.07;;;;;;;16.21;72.50;98105.78;4194165;28;20685;-86
2023/05/29 02:26:52;;;;;;;6.60;3.50;;;;;;;16.19;72.37;98108.56;4188417;28;20654;-85
2023/05/29 02:28:55;;;;;;;5.07;3.40;;;;;;;16.17;71.32;98109.66;4182027;28;20638;-86
2023/05/29 02:30:58;;;;;;;6.23;3.80;;;;;;;16.15;72.40;98111.59;4196991;28;20640;-86
2023/05/29 02:33:03;;;;;;;4.73;3.43;;;;;;;16.10;72.01;98116.44;4175260;28;21267;-86
2023/05/29 02:35:09;;;;;;;6.43;4.60;;;;;;;16.03;73.25;98113.53;4175943;28;20772;-86
2023/05/29 02:37:12;;;;;;;7.53;3.90;;;;;;;15.99;72.51;98113.94;4181123;28;21012;-86
2023/05/29 02:39:15;;;;;;;5.47;3.90;;;;;;;15.94;72.60;98110.06;4198067;28;20617;-86
2023/05/29 02:41:18;;;;;;;5.13;3.50;;;;;;;15.92;72.95;98114.63;4188972;28;20680;-86
2023/05/29 02:43:23;;;;;;;6.07;3.70;;;;;;;15.84;73.87;98107.41;4202762;28;21034;-86
2023/05/29 02:45:26;;;;;;;5.53;3.80;;;;;;;15.80;74.43;98107.81;4184061;28;20635;-86
2023/05/29 02:47:30;;;;;;;6.73;3.93;;;;;;;15.74;74.34;98106.59;4199438;28;20658;-86
2023/05/29 02:49:34;;;;;;;6.60;3.80;;;;;;;15.69;73.29;98102.69;4187249;28;20664;-86
2023/05/29 02:51:38;;;;;;;9.20;3.97;;;;;;;15.58;75.00;98102.81;4182845;28;20669;-86
2023/05/29 02:53:41;;;;;;;5.10;3.57;;;;;;;15.53;73.28;98098.91;4170639;28;20644;-86
2023/05/29 02:55:45;;;;;;;5.37;3.37;;;;;;;15.51;73.58;98095.59;4181880;28;21283;-85
2023/05/29 02:57:48;;;;;;;5.90;3.53;;;;;;;15.48;74.84;98094.06;4194745;28;20640;-86
2023/05/29 02:59:52;;;;;;;5.73;3.43;;;;;;;15.44;74.28;98092.69;4185252;28;21232;-86
2023/05/29 03:01:55;;;;;;;5.00;3.70;;;;;;;15.35;74.97;98096.09;4192627;28;21361;-85
2023/05/29 03:04:02;;;;;;;6.77;3.70;;;;;;;15.20;74.52;98099.25;4177428;28;20641;-85
2023/05/29 03:06:07;;;;;;;5.63;3.50;;;;;;;15.12;75.61;98102.50;4189620;28;21295;-86
2023/05/29 03:08:11;;;;;;;6.33;4.00;;;;;;;15.11;75.17;98110.50;4181317;28;20616;-85
2023/05/29 03:10:17;;;;;;;7.73;4.10;;;;;;;15.01;75.18;98111.44;4173716;28;20631;-86
2023/05/29 03:12:20;;;;;;;11.60;4.67;;;;;;;14.92;76.08;98109.59;4201584;28;20628;-86
2023/05/29 03:14:23;;;;;;;6.20;3.53;;;;;;;14.81;75.92;98107.88;4204937;28;20681;-86
2023/05/29 03:16:29;;;;;;;5.70;4.03;;;;;;;14.71;76.07;98106.97;4188292;28;21192;-86
2023/05/29 03:18:33;;;;;;;7.73;3.73;;;;;;;14.67;76.77;98104.72;4201849;28;20685;-86
2023/05/29 03:20:36;;;;;;;6.30;4.20;;;;;;;14.60;76.59;98104.44;4200436;28;21178;-86
2023/05/29 03:22:41;;;;;;;5.63;4.00;;;;;;;14.54;77.18;98098.88;4192714;28;20730;-86
2023/05/29 03:24:45;;;;;;;5.57;3.53;;;;;;;14.49;77.40;98105.44;4178892;28;20643;-86
2023/05/29 03:26:49;;;;;;;7.20;4.20;;;;;;;14.47;77.24;98102.13;4191943;28;20700;-86
2023/05/29 03:28:53;;;;;;;6.07;3.90;;;;;;;14.40;78.02;98104.44;4177733;28;20635;-86
2023/05/29 03:30:56;;;;;;;5.90;4.23;;;;;;;14.40;77.96;98098.34;4186088;28;20643;-86
2023/05/29 03:33:03;;;;;;;7.23;3.77;;;;;;;14.44;77.85;98100.59;4195939;28;20758;-86
2023/05/29 03:35:25;;;;;;;6.10;3.70;;;;;;;14.45;76.68;98104.03;4187916;28;20693;-86
2023/05/29 03:37:28;;;;;;;8.23;4.10;;;;;;;14.45;77.90;98099.63;4193100;28;21190;-86
2023/05/29 03:39:33;;;;;;;6.23;4.17;;;;;;;14.44;78.14;98111.09;4194540;28;20754;-86
2023/05/29 03:41:37;;;;;;;5.40;3.73;;;;;;;14.44;77.78;98100.59;4170275;28;20629;-86
2023/05/29 03:43:41;;;;;;;8.73;5.60;;;;;;;14.34;78.11;98101.47;4196947;28;21659;-85
2023/05/29 03:45:44;;;;;;;6.67;4.67;;;;;;;14.29;78.51;98108.91;4186724;28;20637;-86
2023/05/29 03:47:47;;;;;;;8.10;4.47;;;;;;;14.30;78.29;98106.16;4197466;28;20639;-86
2023/05/29 03:49:51;;;;;;;8.10;4.20;;;;;;;14.29;78.90;98109.72;4185297;28;20637;-86
2023/05/29 03:51:54;;;;;;;8.10;5.20;;;;;;;14.30;78.87;98110.59;4197405;28;20684;-86
2023/05/29 03:53:57;;;;;;;5.13;4.30;;;;;;;14.32;78.35;98111.28;4202581;28;20673;-85
2023/05/29 03:56:02;;;;;;;6.70;4.50;;;;;;;14.29;77.73;98112.34;4204403;28;20734;-86
2023/05/29 03:58:05;;;;;;;6.67;3.97;;;;;;;14.33;79.14;98118.19;4184141;28;21165;-86
2023/05/29 04:00:11;;;;;;;6.20;3.60;;;;;;;14.37;78.36;98111.72;4201261;28;20639;-86
2023/05/29 04:02:22;;;;;;;6.90;3.63;;;;;;;14.38;78.82;98123.88;4198342;28;20684;-86
2023/05/29 04:04:26;;;;;;;5.60;3.63;;;;;;;14.38;79.39;98124.72;4187101;28;21078;-86
2023/05/29 04:06:30;;;;;;;6.73;4.00;;;;;;;14.42;79.00;98131.38;4202572;28;20697;-86
2023/05/29 04:08:33;;;;;;;5.43;3.40;;;;;;;14.47;79.18;98136.25;4190673;28;20655;-86
2023/05/29 04:10:39;;;;;;;8.60;4.00;;;;;;;14.53;78.54;98133.13;4206248;28;20637;-86
2023/05/29 04:12:43;;;;;;;5.43;4.10;;;;;;;14.58;78.92;98139.63;4198379;28;20738;-86
2023/05/29 04:14:46;;;;;;;6.40;4.10;;;;;;;14.63;78.29;98151.41;4186791;28;20628;-86
2023/05/29 04:16:49;;;;;;;5.43;3.50;;;;;;;14.68;78.42;98143.97;4197531;28;20738;-86
2023/05/29 04:18:52;;;;;;;5.20;3.63;;;;;;;14.74;78.77;98148.72;4185260;28;20664;-86
2023/05/29 04:20:58;;;;;;;7.37;3.87;;;;;;;14.79;77.36;98161.47;4199115;28;20633;-86
2023/05/29 04:23:01;;;;;;;8.33;3.50;;;;;;;14.81;77.75;98157.75;4195913;28;20640;-86
2023/05/29 04:25:05;;;;;;;5.50;3.30;;;;;;;14.80;76.95;98161.34;4195758;28;20629;-86
2023/05/29 04:27:08;;;;;;;6.20;3.60;;;;;;;14.80;78.10;98171.03;4195262;28;21447;-86
2023/05/29 04:29:14;;;;;;;6.63;4.03;;;;;;;14.84;77.50;98162.75;4197941;28;20660;-86
2023/05/29 04:31:22;;;;;;;5.47;3.50;;;;;;;14.89;77.94;98176.31;4171546;28;20647;-86
2023/05/29 04:33:26;;;;;;;5.80;3.63;;;;;;;14.93;78.13;98175.13;4200285;28;20628;-86
2023/05/29 04:35:29;;;;;;;4.60;3.40;;;;;;;14.98;77.95;98178.19;4185040;28;20620;-86
2023/05/29 04:37:38;;;;;;;7.63;3.70;;;;;;;15.01;77.09;98183.19;4186500;28;20632;-86
2023/05/29 04:39:42;;;;;;;5.27;4.10;;;;;;;15.05;77.01;98184.59;4203257;28;20656;-86
2023/05/29 04:41:48;;;;;;;5.43;3.80;;;;;;;15.10;78.10;98188.47;4184997;28;20640;-86
2023/05/29 04:43:55;;;;;;;5.40;3.60;;;;;;;15.15;76.91;98185.47;4209534;28;20729;-86
2023/05/29 04:46:02;;;;;;;7.30;4.07;;;;;;;15.19;78.30;98192.97;4183372;28;20709;-86
2023/05/29 04:48:09;;;;;;;5.53;4.13;;;;;;;15.24;77.33;98200.47;4189452;28;20655;-86
2023/05/29 04:50:13;;;;;;;9.27;3.80;;;;;;;15.26;76.92;98199.41;4197033;28;20696;-86
2023/05/29 04:52:18;;;;;;;4.90;3.70;;;;;;;15.30;78.10;98197.31;4199974;28;20637;-86
2023/05/29 04:54:23;;;;;;;6.23;3.80;;;;;;;15.34;77.83;98198.75;4181654;28;20627;-86
2023/05/29 04:56:29;;;;;;;5.90;4.00;;;;;;;15.41;77.20;98205.13;4196647;28;20633;-86
2023/05/29 04:58:32;;;;;;;4.90;3.60;;;;;;;15.45;76.96;98194.22;4194525;28;21192;-85
2023/05/29 05:00:35;;;;;;;5.43;4.00;;;;;;;15.50;76.48;98206.97;4183439;28;21318;-86
2023/05/29 05:02:42;;;;;;;6.70;4.13;;;;;;;15.55;76.00;98200.34;4201937;28;20660;-85
2023/05/29 05:04:46;;;;;;;8.73;3.70;;;;;;;15.58;77.53;98214.06;4204588;28;20662;-86
2023/05/29 05:06:51;;;;;;;5.60;4.13;;;;;;;15.63;77.73;98218.91;4202166;28;20677;-86
2023/05/29 05:08:54;;;;;;;4.90;3.50;;;;;;;15.67;76.70;98221.16;4197527;28;20693;-86
2023/05/29 05:10:58;;;;;;;7.90;3.93;;;;;;;15.72;78.12;98220.75;4195282;28;20635;-86
2023/05/29 05:13:02;;;;;;;5.53;3.77;;;;;;;15.76;78.32;98227.44;4201463;28;20637;-86
2023/05/29 05:15:08;;;;;;;5.50;3.90;;;;;;;15.82;76.10;98222.47;4193898;28;20634;-85
2023/05/29 05:17:11;;;;;;;6.20;3.97;;;;;;;15.88;77.67;98227.19;4200984;28;20669;-86
2023/05/29 05:19:15;;;;;;;6.50;4.00;;;;;;;15.93;76.18;98222.34;4187875;28;21274;-86
2023/05/29 05:21:19;;;;;;;5.40;3.67;;;;;;;16.01;75.81;98226.94;4188903;28;20756;-86
2023/05/29 05:23:23;;;;;;;5.60;3.60;;;;;;;16.07;76.53;98217.53;4183355;28;21273;-86
2023/05/29 05:25:26;;;;;;;5.27;3.70;;;;;;;16.13;76.52;98224.06;4184350;28;20685;-86
2023/05/29 05:27:30;;;;;;;5.50;4.20;;;;;;;16.21;77.24;98226.88;4194031;28;20668;-86
2023/05/29 05:29:33;;;;;;;6.30;4.20;;;;;;;16.30;74.42;98231.34;4197750;28;20679;-86
2023/05/29 05:31:36;;;;;;;6.10;3.70;;;;;;;16.40;74.88;98235.63;4199445;28;21055;-86
2023/05/29 05:33:39;;;;;;;5.17;3.40;;;;;;;16.52;75.45;98234.53;4200323;28;20689;-86
2023/05/29 05:35:44;;;;;;;5.83;3.57;;;;;;;16.63;76.14;98248.41;4189841;28;20641;-86
2023/05/29 05:37:47;;;;;;;5.07;3.63;;;;;;;16.78;75.53;98249.66;4198388;28;20668;-86
2023/05/29 05:39:50;;;;;;;7.23;4.30;;;;;;;16.95;75.55;98248.97;4173423;28;20646;-86
2023/05/29 05:41:53;;;;;;;6.00;4.17;;;;;;;17.19;74.47;98254.63;4174138;28;20792;-86
2023/05/29 05:44:19;;;;;;;5.30;3.77;;;;;;;17.52;73.02;98258.47;4203495;28;20634;-85
2023/05/29 05:46:26;;;;;;;5.90;3.60;;;;;;;17.85;73.62;98254.47;4200174;28;20696;-86
2023/05/29 05:48:30;;;;;;;9.60;4.40;;;;;;;18.18;72.05;98263.50;4190515;28;20664;-85
2023/05/29 05:50:33;;;;;;;6.53;3.90;;;;;;;18.48;71.03;98261.38;4184760;28;20639;-86
2023/05/29 05:52:38;;;;;;;5.43;3.70;;;;;;;18.78;71.14;98270.75;4188172;28;20659;-86
2023/05/29 05:54:41;;;;;;;4.83;3.40;;;;;;;19.06;69.31;98270.53;4180991;28;20628;-86
2023/05/29 05:56:45;;;;;;;6.23;4.10;;;;;;;19.32;70.13;98274.91;4206363;28;20736;-86
2023/05/29 05:58:53;;;;;;;5.83;3.80;;;;;;;19.62;69.82;98279.72;4190006;28;23056;-85
2023/05/29 06:00:57;;;;;;;6.83;4.20;;;;;;;19.91;67.38;98281.09;4180843;28;21002;-86
2023/05/29 06:03:03;;;;;;;6.33;3.37;;;;;;;20.19;68.57;98283.41;4177007;28;20628;-86
2023/05/29 06:05:26;;;;;;;6.30;3.87;;;;;;;20.49;68.41;98288.97;4187317;28;20658;-85
2023/05/29 06:07:30;;;;;;;5.17;3.50;;;;;;;20.67;67.08;98286.19;4179646;28;20646;-86
2023/05/29 06:09:34;;;;;;;4.73;3.50;;;;;;;20.81;66.95;98281.97;4185482;28;20655;-85
2023/05/29 06:11:38;;;;;;;4.53;3.60;;;;;;;20.99;66.06;98292.44;4194911;28;20992;-86
2023/05/29 06:13:42;;;;;;;5.10;3.63;;;;;;;21.15;65.56;98293.25;4205433;28;20626;-85
2023/05/29 06:15:51;;;;;;;5.30;3.90;;;;;;;21.36;65.65;98299.75;4188625;28;21427;-86
2023/05/29 06:17:55;;;;;;;7.27;4.17;;;;;;;21.54;66.12;98297.78;4188760;28;20739;-86
2023/05/29 06:20:00;;;;;;;8.60;3.60;;;;;;;21.76;65.88;98302.41;4199405;28;20630;-86
2023/05/29 06:22:04;;;;;;;6.33;3.80;;;;;;;21.96;64.79;98298.38;4204349;28;20730;-85
2023/05/29 06:24:09;;;;;;;6.43;4.10;;;;;;;22.16;64.47;98289.84;4209691;28;20640;-85
2023/05/29 06:26:15;;;;;;;6.53;4.50;;;;;;;22.31;62.58;98301.44;4174651;28;21046;-86
2023/05/29 06:28:21;;;;;;;5.33;3.30;;;;;;;22.48;63.28;98298.56;4185120;28;20752;-85
2023/05/29 06:30:25;;;;;;;6.77;3.50;;;;;;;22.68;63.39;98302.44;4182985;28;20695;-85
2023/05/29 06:32:28;;;;;;;6.40;3.40;;;;;;;22.86;62.95;98311.00;4193950;28;20636;-85
2023/05/29 06:34:34;;;;;;;5.30;3.90;;;;;;;22.88;61.18;98307.16;4196378;28;20623;-86
2023/05/29 06:36:38;;;;;;;5.40;3.40;;;;;;;22.93;61.93;98311.97;4188904;28;20658;-85
2023/05/29 06:38:41;;;;;;;5.50;3.80;;;;;;;23.18;61.89;98316.13;4209258;28;20631;-86
2023/05/29 06:40:44;;;;;;;5.10;3.73;;;;;;;23.33;60.86;98324.00;4200353;28;21132;-86
2023/05/29 06:42:49;;;;;;;4.97;3.37;;;;;;;23.57;60.30;98323.78;4189019;28;21030;-86
2023/05/29 06:44:52;;;;;;;6.07;3.70;;;;;;;23.71;59.41;98331.88;4208340;28;20623;-86
2023/05/29 06:46:56;;;;;;;6.07;3.77;;;;;;;23.87;60.79;98330.88;4183933;28;21068;-86
2023/05/29 06:48:59;;;;;;;4.30;3.30;;;;;;;24.07;59.54;98332.88;4189126;28;20710;-85
2023/05/29 06:51:08;;;;;;;6.00;3.70;;;;;;;24.20;56.48;98333.03;4184431;28;20639;-86
2023/05/29 06:53:17;;;;;;;4.83;3.40;;;;;;;24.45;56.87;98331.81;4198195;28;20635;-87
2023/05/29 06:55:24;;;;;;;6.63;3.67;;;;;;;24.61;53.67;98327.06;4188763;28;20737;-88
2023/05/29 06:57:29;;;;;;;6.23;3.23;;;;;;;24.82;53.66;98336.00;4173308;28;21317;-87
2023/05/29 06:59:33;;;;;;;6.50;3.80;;;;;;;25.00;53.08;98341.75;4170338;28;21277;-87
2023/05/29 07:01:37;;;;;;;4.50;3.50;;;;;;;24.96;52.08;98335.13;4195532;28;20646;-86
2023/05/29 07:03:58;;;;;;;5.60;3.50;;;;;;;24.99;53.72;98337.44;4195401;28;20642;-87
2023/05/29 07:06:02;;;;;;;6.33;3.47;;;;;;;24.99;53.05;98329.44;4196453;28;20651;-87
2023/05/29 07:08:07;;;;;;;6.67;3.90;;;;;;;25.23;53.82;98345.13;4186504;28;20673;-87
2023/05/29 07:10:11;;;;;;;4.70;3.57;;;;;;;25.45;53.36;98344.91;4200540;28;21020;-87
2023/05/29 07:12:14;;;;;;;6.60;5.47;;;;;;;25.40;52.35;98339.31;4203877;28;20650;-87
2023/05/29 07:14:17;;;;;;;6.90;4.10;;;;;;;25.40;51.98;98350.00;4189875;28;21378;-87
2023/05/29 07:16:22;;;;;;;4.33;3.30;;;;;;;25.35;52.91;98344.41;4197549;28;20623;-88
2023/05/29 07:18:38;;;;;;;5.00;4.00;;;;;;;25.52;53.21;98342.31;4180217;28;20694;-87
2023/05/29 07:20:46;;;;;;;5.67;3.83;;;;;;;25.71;52.27;98346.03;4182434;28;21202;-87
2023/05/29 07:22:53;;;;;;;5.20;3.27;;;;;;;25.83;53.69;98349.00;4187764;28;21782;-87
2023/05/29 07:24:56;;;;;;;5.03;3.70;;;;;;;25.92;52.65;98345.16;4203307;28;20634;-86
2023/05/29 07:26:59;;;;;;;4.80;3.70;;;;;;;25.83;52.34;98341.81;4196455;28;20624;-84
2023/05/29 07:29:03;;;;;;;7.33;4.30;;;;;;;25.76;52.24;98338.25;4200090;28;20731;-83
2023/05/29 07:31:08;;;;;;;5.47;3.70;;;;;;;25.55;52.52;98340.09;4189324;28;20652;-84
2023/05/29 07:33:12;;;;;;;5.90;4.63;;;;;;;25.53;53.46;98341.28;4201261;28;20635;-83
2023/05/29 07:35:16;;;;;;;5.40;3.50;;;;;;;25.64;53.78;98342.47;4199748;28;21409;-84
2023/05/29 07:37:19;;;;;;;5.97;4.00;;;;;;;25.72;53.18;98336.97;4186899;28;21019;-83
2023/05/29 07:39:23;;;;;;;7.90;3.50;;;;;;;25.85;52.72;98339.78;4190477;28;21394;-83
2023/05/29 07:41:27;;;;;;;5.87;4.10;;;;;;;25.82;52.97;98339.34;4188238;28;20624;-84
2023/05/29 07:43:30;;;;;;;8.40;4.20;;;;;;;26.08;53.54;98349.22;4207298;28;21190;-84
2023/05/29 07:45:36;;;;;;;6.90;3.93;;;;;;;26.07;52.21;98344.06;4201715;28;20718;-83
2023/05/29 07:47:40;;;;;;;7.37;4.10;;;;;;;26.13;53.11;98352.13;4183739;28;20671;-85
2023/05/29 07:49:45;;;;;;;5.83;4.67;;;;;;;26.32;53.71;98348.78;4203076;28;21064;-84
2023/05/29 07:51:48;;;;;;;4.30;3.40;;;;;;;26.53;52.51;98347.88;4199743;28;20643;-85
2023/05/29 07:53:52;;;;;;;5.80;3.90;;;;;;;26.57;50.99;98347.28;4185797;28;20628;-84
2023/05/29 07:55:56;;;;;;;7.40;4.07;;;;;;;26.52;51.73;98340.88;4204420;28;20620;-82
2023/05/29 07:57:59;;;;;;;5.50;3.53;;;;;;;26.43;51.25;98339.38;4212665;28;20626;-84
2023/05/29 08:00:07;;;;;;;4.83;3.80;;;;;;;26.47;52.05;98338.78;4197368;28;20666;-85
2023/05/29 08:02:21;;;;;;;5.80;3.80;;;;;;;26.03;51.61;98336.63;4188288;28;21313;-88
2023/05/29 08:04:52;;;;;;;5.63;3.40;;;;;;;25.97;52.35;98345.44;4185693;28;21720;-86
2023/05/29 08:06:55;;;;;;;5.13;3.53;;;;;;;25.93;52.60;98333.47;4173599;28;20704;-86
2023/05/29 08:08:59;;;;;;;4.43;3.47;;;;;;;26.17;53.11;98337.31;4190533;28;20641;-83
2023/05/29 08:11:03;;;;;;;5.23;3.67;;;;;;;26.43;51.80;98344.72;4194819;28;21219;-84
2023/05/29 08:13:06;;;;;;;4.90;3.70;;;;;;;26.36;51.73;98347.38;4201576;28;20650;-84
2023/05/29 08:15:12;;;;;;;7.83;4.30;;;;;;;26.35;52.43;98343.03;4201919;28;20620;-85
2023/05/29 08:17:16;;;;;;;6.20;4.10;;;;;;;26.36;51.62;98342.03;4194780;28;20664;-84
2023/05/29 08:19:20;;;;;;;5.07;3.53;;;;;;;26.14;52.15;98335.03;4198909;28;20642;-84
2023/05/29 08:21:25;;;;;;;4.23;3.20;;;;;;;26.06;52.09;98336.25;4195884;28;21187;-84
2023/05/29 08:23:29;;;;;;;4.83;3.73;;;;;;;26.08;51.39;98339.53;4200610;28;20659;-83
2023/05/29 08:25:32;;;;;;;5.00;3.60;;;;;;;26.11;52.22;98331.94;4200764;28;21196;-84
2023/05/29 08:27:35;;;;;;;5.10;3.40;;;;;;;26.21;51.88;98343.94;4194922;28;20709;-84
2023/05/29 08:29:38;;;;;;;6.37;3.97;;;;;;;26.18;51.06;98338.19;4186023;28;21492;-84
2023/05/29 08:31:42;;;;;;;5.03;3.47;;;;;;;26.16;51.35;98335.69;4179485;28;20740;-84
2023/05/29 08:33:45;;;;;;;5.63;3.73;;;;;;;26.39;52.62;98328.25;4193577;28;20642;-84
2023/05/29 08:35:48;;;;;;;5.80;3.60;;;;;;;26.58;51.54;98343.56;4197660;28;20662;-84
2023/05/29 08:37:52;;;;;;;5.80;3.80;;;;;;;26.54;50.79;98339.66;4199847;28;20642;-84
2023/05/29 08:39:56;;;;;;;4.67;3.77;;;;;;;26.58;51.93;98340.91;4195977;28;20632;-84
2023/05/29 08:42:02;;;;;;;5.03;3.40;;;;;;;26.61;51.56;98340.50;4198155;28;21061;-84
2023/05/29 08:44:07;;;;;;;7.03;3.80;;;;;;;26.59;51.21;98338.03;4180919;28;20641;-84
2023/05/29 08:46:11;;;;;;;5.20;3.70;;;;;;;26.63;52.52;98339.28;4196874;28;20706;-84
2023/05/29 08:48:15;;;;;;;4.40;3.10;;;;;;;26.98;51.75;98334.75;4192504;28;20641;-84
2023/05/29 08:50:19;;;;;;;5.40;3.73;;;;;;;27.10;51.74;98345.47;4199795;28;20687;-84
2023/05/29 08:52:25;;;;;;;6.00;3.70;;;;;;;27.19;51.08;98335.44;4194589;28;20745;-84
2023/05/29 08:54:31;;;;;;;5.50;3.87;;;;;;;27.03;49.36;98330.41;4197342;28;20681;-85
2023/05/29 08:56:36;;;;;;;4.93;3.40;;;;;;;26.83;50.55;98339.38;4197466;28;20625;-84
2023/05/29 08:58:39;;;;;;;6.20;3.50;;;;;;;26.95;51.21;98338.63;4195705;28;20639;-84
2023/05/29 09:00:42;;;;;;;6.00;3.30;;;;;;;27.02;49.26;98330.63;4188726;28;21201;-84
2023/05/29 09:02:46;;;;;;;5.72;3.47;;;;;;;27.01;50.56;98331.66;4186974;28;20994;-83
2023/05/29 09:04:54;;;;;;;5.37;3.73;;;;;;;26.86;50.44;98331.78;4200495;28;20679;-84
2023/05/29 09:06:58;;;;;;;5.57;3.60;;;;;;;26.90;50.21;98329.53;4199777;28;21418;-84
2023/05/29 09:09:01;;;;;;;5.40;3.13;;;;;;;26.92;49.69;98333.69;4192418;28;20635;-84
2023/05/29 09:11:06;;;;;;;4.17;3.50;;;;;;;26.89;49.25;98334.09;4187376;28;21915;-84
2023/05/29 09:13:11;;;;;;;6.53;4.00;;;;;;;27.02;49.94;98342.19;4181070;28;20693;-84
2023/05/29 09:15:19;;;;;;;4.30;3.33;;;;;;;27.05;49.67;98337.22;4195322;28;20657;-85
2023/05/29 09:17:22;;;;;;;4.30;3.13;;;;;;;26.96;49.78;98332.25;4188974;28;20639;-84
2023/05/29 09:19:26;;;;;;;4.80;3.27;;;;;;;26.96;48.08;98331.41;4177615;28;20726;-84
2023/05/29 09:21:33;;;;;;;7.17;3.67;;;;;;;26.72;49.69;98327.38;4184120;28;20736;-84
2023/05/29 09:23:36;;;;;;;6.47;3.53;;;;;;;26.84;49.93;98327.66;4182386;28;20642;-84
2023/05/29 09:25:42;;;;;;;5.73;3.50;;;;;;;26.91;50.38;98336.56;4192323;28;20733;-84
2023/05/29 09:27:47;;;;;;;6.40;3.73;;;;;;;26.91;49.75;98325.84;4194607;28;20631;-84
2023/05/29 09:29:50;;;;;;;4.40;3.30;;;;;;;26.64;50.37;98322.22;4187751;28;20735;-83
2023/05/29 09:31:53;;;;;;;5.30;3.50;;;;;;;26.55;50.16;98325.22;4186022;28;21086;-84
2023/05/29 09:33:56;;;;;;;4.30;3.37;;;;;;;26.70;49.64;98333.97;4182166;28;20632;-84
2023/05/29 09:36:00;;;;;;;5.70;3.77;;;;;;;26.91;51.19;98331.19;4197864;28;20665;-83
2023/05/29 09:38:04;;;;;;;4.40;3.20;;;;;;;27.02;50.19;98334.16;4201129;28;20650;-82
2023/05/29 09:40:10;;;;;;;6.70;3.50;;;;;;;27.08;50.24;98344.06;4198622;28;20658;-83
2023/05/29 09:42:13;;;;;;;5.40;3.67;;;;;;;27.26;50.12;98337.09;4195298;28;20640;-83
2023/05/29 09:44:19;;;;;;;6.50;4.10;;;;;;;27.14;49.86;98345.94;4184582;28;21245;-83
2023/05/29 09:46:23;;;;;;;4.63;3.10;;;;;;;27.04;50.20;98328.59;4198947;28;21239;-83
2023/05/29 09:48:27;;;;;;;4.47;3.17;;;;;;;26.78;49.31;98331.13;4201292;28;21006;-83